Time;durP1;ratioP1;P1;durP2;ratioP2;P2;SDS_P1;SDS_P2;PMS_P1;PMS_P2;Temp;Humidity;BMP_temperature;BMP_pressure;BME280_temperature;BME280_humidity;BME280_pressure;Samples;Min_cycle;Max_cycle;Signal;HPM_P1;HPM_P2
2022/09/06 00:01:55;;;;;;;1.40;1.30;;;;;;;;;;5068968;28;20307;-65
2022/09/06 00:04:22;;;;;;;4.03;1.23;;;;;;;;;;5061094;28;20551;-64
2022/09/06 00:06:49;;;;;;;1.80;1.40;;;;;;;;;;5062535;28;20211;-65
2022/09/06 00:09:18;;;;;;;1.17;1.17;;;;;;;;;;5049359;28;20219;-64
2022/09/06 00:11:45;;;;;;;2.47;1.55;;;;;;;;;;5049861;28;20204;-65
2022/09/06 00:14:12;;;;;;;1.50;1.40;;;;;;;;;;5048799;28;20277;-65
2022/09/06 00:16:40;;;;;;;1.40;1.40;;;;;;;;;;5049582;28;20662;-65
2022/09/06 00:19:07;;;;;;;1.50;1.50;;;;;;;;;;5054928;28;20352;-64
2022/09/06 00:21:34;;;;;;;1.50;1.40;;;;;;;;;;5049670;28;20207;-64
2022/09/06 00:24:02;;;;;;;1.30;1.30;;;;;;;;;;5048719;28;20231;-64
2022/09/06 00:26:31;;;;;;;2.25;1.52;;;;;;;;;;5066781;28;20267;-65
2022/09/06 00:28:58;;;;;;;1.55;1.38;;;;;;;;;;5060484;28;20222;-65
2022/09/06 00:31:26;;;;;;;1.40;1.38;;;;;;;;;;5063730;28;20203;-65
2022/09/06 00:33:53;;;;;;;1.48;1.42;;;;;;;;;;5064903;28;20239;-64
2022/09/06 00:36:21;;;;;;;1.30;1.30;;;;;;;;;;5061025;28;20257;-64
2022/09/06 00:38:48;;;;;;;1.50;1.50;;;;;;;;;;5053434;28;20207;-65
2022/09/06 00:41:16;;;;;;;1.55;1.55;;;;;;;;;;5063268;28;20203;-64
2022/09/06 00:43:45;;;;;;;1.45;1.45;;;;;;;;;;5049158;28;20231;-65
2022/09/06 00:46:14;;;;;;;1.60;1.50;;;;;;;;;;5049247;28;20203;-64
2022/09/06 00:48:41;;;;;;;1.50;1.50;;;;;;;;;;5048247;28;20211;-65
2022/09/06 00:51:10;;;;;;;1.50;1.50;;;;;;;;;;5048180;28;20204;-65
2022/09/06 00:53:37;;;;;;;1.42;1.42;;;;;;;;;;5065682;28;20831;-65
2022/09/06 00:56:05;;;;;;;1.40;1.30;;;;;;;;;;5065497;28;20226;-65
2022/09/06 00:58:32;;;;;;;1.45;1.45;;;;;;;;;;5053098;28;20272;-64
2022/09/06 01:01:00;;;;;;;1.25;1.25;;;;;;;;;;5051871;28;20215;-64
2022/09/06 01:03:28;;;;;;;1.58;1.58;;;;;;;;;;5048374;28;20298;-65
2022/09/06 01:05:59;;;;;;;2.13;1.45;;;;;;;;;;5048208;28;20219;-65
2022/09/06 01:08:32;;;;;;;1.27;1.27;;;;;;;;;;5051886;28;20234;-64
2022/09/06 01:11:09;;;;;;;3.42;1.40;;;;;;;;;;5056203;28;20293;-64
2022/09/06 01:13:40;;;;;;;1.25;1.20;;;;;;;;;;5062728;28;20219;-64
2022/09/06 01:16:11;;;;;;;3.05;1.42;;;;;;;;;;5049510;28;20204;-65
2022/09/06 01:18:49;;;;;;;1.30;1.30;;;;;;;;;;5059921;28;20218;-65
2022/09/06 01:21:25;;;;;;;1.17;1.17;;;;;;;;;;5052924;28;20211;-65
2022/09/06 01:24:03;;;;;;;1.33;1.33;;;;;;;;;;5049266;28;20223;-65
2022/09/06 01:26:46;;;;;;;1.42;1.42;;;;;;;;;;5064591;28;20215;-65
2022/09/06 01:29:23;;;;;;;1.88;1.58;;;;;;;;;;5063907;28;20203;-63
2022/09/06 01:31:53;;;;;;;1.65;1.65;;;;;;;;;;5051805;28;20217;-66
2022/09/06 01:34:22;;;;;;;1.30;1.30;;;;;;;;;;5062118;28;20230;-63
2022/09/06 01:36:51;;;;;;;1.30;1.20;;;;;;;;;;5051685;28;20207;-63
2022/09/06 01:39:23;;;;;;;2.75;1.52;;;;;;;;;;5056915;28;20211;-65
2022/09/06 01:41:51;;;;;;;1.58;1.42;;;;;;;;;;5059289;28;20207;-66
2022/09/06 01:44:19;;;;;;;2.03;1.48;;;;;;;;;;5066947;28;20294;-65
2022/09/06 01:46:53;;;;;;;1.35;1.30;;;;;;;;;;5059185;28;20675;-65
2022/09/06 01:49:25;;;;;;;1.27;1.27;;;;;;;;;;5048943;28;20208;-62
2022/09/06 01:51:58;;;;;;;0.80;0.80;;;;;;;;;;5062731;28;20665;-63
2022/09/06 01:54:29;;;;;;;1.65;1.52;;;;;;;;;;5059183;28;20223;-63
2022/09/06 01:57:03;;;;;;;0.90;0.90;;;;;;;;;;5058743;28;20357;-63
2022/09/06 01:59:35;;;;;;;1.00;1.00;;;;;;;;;;5048863;28;20225;-63
2022/09/06 02:02:06;;;;;;;1.88;0.90;;;;;;;;;;5061731;28;20211;-64
2022/09/06 02:04:36;;;;;;;2.85;1.50;;;;;;;;;;5052652;28;20212;-63
2022/09/06 02:07:05;;;;;;;1.10;1.10;;;;;;;;;;5059119;28;20207;-64
2022/09/06 02:09:34;;;;;;;0.93;0.93;;;;;;;;;;5065951;28;20244;-65
2022/09/06 02:12:03;;;;;;;0.90;0.90;;;;;;;;;;5059350;28;20203;-64
2022/09/06 02:14:32;;;;;;;1.42;0.73;;;;;;;;;;5059968;28;20223;-65
2022/09/06 02:17:01;;;;;;;1.00;1.00;;;;;;;;;;5065880;28;20253;-65
2022/09/06 02:19:32;;;;;;;0.98;0.98;;;;;;;;;;5063463;28;20230;-64
2022/09/06 02:21:59;;;;;;;10.88;1.10;;;;;;;;;;5064178;28;20317;-64
2022/09/06 02:24:29;;;;;;;1.00;1.00;;;;;;;;;;5058342;28;20239;-64
2022/09/06 02:26:57;;;;;;;0.80;0.80;;;;;;;;;;5049936;28;20211;-64
2022/09/06 02:29:24;;;;;;;0.82;0.82;;;;;;;;;;5052358;28;20237;-65
2022/09/06 02:31:53;;;;;;;0.65;0.65;;;;;;;;;;5057529;28;20195;-65
2022/09/06 02:34:22;;;;;;;1.05;0.70;;;;;;;;;;5060870;28;20636;-64
2022/09/06 02:36:49;;;;;;;0.75;0.60;;;;;;;;;;5066213;28;20732;-65
2022/09/06 02:39:16;;;;;;;0.60;0.60;;;;;;;;;;5046649;28;20208;-65
2022/09/06 02:41:46;;;;;;;0.60;0.60;;;;;;;;;;5046782;28;20207;-65
2022/09/06 02:44:13;;;;;;;0.60;0.60;;;;;;;;;;5046821;28;20211;-65
2022/09/06 02:46:40;;;;;;;0.70;0.70;;;;;;;;;;5053604;28;20206;-64
2022/09/06 02:49:07;;;;;;;1.40;0.50;;;;;;;;;;5065581;28;20203;-65
2022/09/06 02:51:38;;;;;;;0.63;0.63;;;;;;;;;;5065301;28;20198;-65
2022/09/06 02:54:05;;;;;;;0.50;0.50;;;;;;;;;;5053341;28;20314;-65
2022/09/06 02:56:35;;;;;;;0.50;0.50;;;;;;;;;;5059351;28;20207;-64
2022/09/06 02:59:02;;;;;;;0.70;0.70;;;;;;;;;;5049231;28;20307;-65
2022/09/06 03:01:29;;;;;;;0.50;0.50;;;;;;;;;;5053829;28;20203;-65
2022/09/06 03:03:56;;;;;;;2.60;0.52;;;;;;;;;;5051336;28;20199;-66
2022/09/06 03:06:23;;;;;;;0.95;0.65;;;;;;;;;;5057516;28;20223;-65
2022/09/06 03:08:52;;;;;;;0.68;0.50;;;;;;;;;;5060086;28;20324;-65
2022/09/06 03:11:19;;;;;;;0.70;0.70;;;;;;;;;;5063703;28;20203;-66
2022/09/06 03:13:46;;;;;;;0.70;0.70;;;;;;;;;;5048981;28;20219;-65
2022/09/06 03:16:13;;;;;;;0.55;0.47;;;;;;;;;;5049917;28;20203;-64
2022/09/06 03:18:40;;;;;;;0.50;0.50;;;;;;;;;;5050775;28;20258;-64
2022/09/06 03:21:07;;;;;;;0.60;0.60;;;;;;;;;;5051141;28;20204;-64
2022/09/06 03:23:34;;;;;;;5.00;0.60;;;;;;;;;;5049988;28;20704;-64
2022/09/06 03:26:03;;;;;;;0.70;0.70;;;;;;;;;;5064785;28;21813;-64
2022/09/06 03:28:30;;;;;;;0.60;0.60;;;;;;;;;;5054627;28;20262;-64
2022/09/06 03:30:57;;;;;;;0.60;0.60;;;;;;;;;;5058591;28;20210;-64
2022/09/06 03:33:24;;;;;;;0.68;0.68;;;;;;;;;;5050595;28;20250;-66
2022/09/06 03:35:52;;;;;;;0.70;0.70;;;;;;;;;;5049724;28;20657;-64
2022/09/06 03:38:19;;;;;;;1.30;0.70;;;;;;;;;;5050489;28;20200;-65
2022/09/06 03:40:47;;;;;;;0.60;0.60;;;;;;;;;;5052556;28;20622;-63
2022/09/06 03:43:16;;;;;;;0.77;0.77;;;;;;;;;;5054814;28;20660;-64
2022/09/06 03:45:45;;;;;;;0.60;0.60;;;;;;;;;;5056534;28;20200;-64
2022/09/06 03:48:12;;;;;;;0.80;0.80;;;;;;;;;;5055327;28;20304;-64
2022/09/06 03:50:39;;;;;;;0.50;0.50;;;;;;;;;;5051744;28;20670;-65
2022/09/06 03:53:06;;;;;;;0.60;0.60;;;;;;;;;;5053440;28;20643;-64
2022/09/06 03:55:33;;;;;;;0.60;0.60;;;;;;;;;;5060245;28;20227;-64
2022/09/06 03:58:00;;;;;;;3.58;0.70;;;;;;;;;;5063962;28;20202;-64
2022/09/06 04:00:32;;;;;;;0.82;0.82;;;;;;;;;;5063768;28;20203;-64
2022/09/06 04:03:00;;;;;;;0.60;0.60;;;;;;;;;;5051856;28;20196;-64
2022/09/06 04:05:27;;;;;;;0.68;0.68;;;;;;;;;;5054260;28;20203;-64
2022/09/06 04:07:54;;;;;;;0.70;0.70;;;;;;;;;;5053048;28;20241;-64
2022/09/06 04:10:21;;;;;;;0.70;0.70;;;;;;;;;;5054710;28;20202;-65
2022/09/06 04:12:48;;;;;;;0.70;0.70;;;;;;;;;;5062190;28;20807;-64
2022/09/06 04:15:15;;;;;;;0.95;0.70;;;;;;;;;;5057640;28;20263;-64
2022/09/06 04:17:45;;;;;;;0.52;0.52;;;;;;;;;;5053496;28;20223;-64
2022/09/06 04:20:12;;;;;;;1.38;0.75;;;;;;;;;;5052251;28;20635;-63
2022/09/06 04:22:39;;;;;;;0.70;0.70;;;;;;;;;;5059644;28;20566;-64
2022/09/06 04:25:07;;;;;;;1.58;0.60;;;;;;;;;;5054438;28;20234;-64
2022/09/06 04:27:35;;;;;;;0.70;0.70;;;;;;;;;;5060618;28;20205;-67
2022/09/06 04:30:02;;;;;;;1.27;0.80;;;;;;;;;;5065934;28;20211;-65
2022/09/06 04:32:38;;;;;;;0.63;0.63;;;;;;;;;;5056342;28;20224;-64
2022/09/06 04:35:07;;;;;;;0.70;0.70;;;;;;;;;;5050618;28;20258;-65
2022/09/06 04:37:34;;;;;;;0.82;0.82;;;;;;;;;;5048404;28;20199;-65
2022/09/06 04:40:02;;;;;;;1.17;0.73;;;;;;;;;;5050062;28;20204;-65
2022/09/06 04:42:29;;;;;;;0.90;0.80;;;;;;;;;;5048715;28;20199;-65
2022/09/06 04:44:56;;;;;;;0.70;0.70;;;;;;;;;;5049405;28;20200;-64
2022/09/06 04:47:23;;;;;;;0.70;0.70;;;;;;;;;;5060910;28;20199;-65
2022/09/06 04:49:50;;;;;;;0.75;0.75;;;;;;;;;;5067142;28;20199;-64
2022/09/06 04:52:18;;;;;;;1.30;1.30;;;;;;;;;;5056186;28;20745;-65
2022/09/06 04:54:45;;;;;;;0.90;0.90;;;;;;;;;;5053009;28;20230;-64
2022/09/06 04:57:13;;;;;;;0.85;0.85;;;;;;;;;;5053855;28;20216;-65
2022/09/06 04:59:40;;;;;;;0.80;0.80;;;;;;;;;;5048587;28;20264;-65
2022/09/06 05:02:07;;;;;;;0.82;0.82;;;;;;;;;;5049578;28;20202;-65
2022/09/06 05:04:34;;;;;;;0.70;0.70;;;;;;;;;;5048144;28;20200;-66
2022/09/06 05:07:02;;;;;;;0.88;0.88;;;;;;;;;;5048916;28;20212;-66
2022/09/06 05:09:30;;;;;;;1.95;0.93;;;;;;;;;;5055310;28;20272;-64
2022/09/06 05:11:57;;;;;;;0.80;0.80;;;;;;;;;;5057062;28;20210;-65
2022/09/06 05:14:24;;;;;;;0.90;0.90;;;;;;;;;;5061235;28;20219;-65
2022/09/06 05:16:51;;;;;;;1.38;1.23;;;;;;;;;;5051985;28;20211;-64
2022/09/06 05:19:19;;;;;;;0.95;0.95;;;;;;;;;;5050081;28;20207;-65
2022/09/06 05:21:46;;;;;;;1.08;1.00;;;;;;;;;;5065162;28;20268;-63
2022/09/06 05:24:13;;;;;;;1.48;1.38;;;;;;;;;;5052944;28;20242;-63
2022/09/06 05:26:41;;;;;;;2.88;1.27;;;;;;;;;;5056025;28;20199;-64
2022/09/06 05:29:08;;;;;;;1.20;1.08;;;;;;;;;;5053825;28;20696;-64
2022/09/06 05:31:36;;;;;;;0.95;0.95;;;;;;;;;;5060527;28;20210;-64
2022/09/06 05:34:03;;;;;;;1.55;1.17;;;;;;;;;;5061740;28;20214;-64
2022/09/06 05:36:30;;;;;;;0.88;0.88;;;;;;;;;;5060623;28;20208;-64
2022/09/06 05:38:58;;;;;;;0.88;0.88;;;;;;;;;;5049101;28;20290;-65
2022/09/06 05:41:25;;;;;;;0.90;0.90;;;;;;;;;;5049694;28;20207;-68
2022/09/06 05:43:53;;;;;;;1.05;1.05;;;;;;;;;;5054986;28;20202;-64
2022/09/06 05:46:21;;;;;;;1.08;0.95;;;;;;;;;;5063944;28;20688;-65
2022/09/06 05:48:53;;;;;;;1.23;1.13;;;;;;;;;;5063887;28;20230;-64
2022/09/06 05:51:20;;;;;;;1.10;1.00;;;;;;;;;;5066882;28;20207;-64
2022/09/06 05:53:47;;;;;;;0.70;0.70;;;;;;;;;;5060642;28;20565;-65
2022/09/06 05:56:15;;;;;;;1.08;0.80;;;;;;;;;;5054593;28;20239;-65
2022/09/06 05:58:42;;;;;;;0.90;0.90;;;;;;;;;;5048846;28;20495;-65
2022/09/06 06:01:15;;;;;;;1.00;1.00;;;;;;;;;;5057667;28;20199;-65
2022/09/06 06:03:42;;;;;;;0.80;0.80;;;;;;;;;;5057516;28;20203;-65
2022/09/06 06:06:09;;;;;;;0.80;0.80;;;;;;;;;;5058331;28;20211;-66
2022/09/06 06:08:36;;;;;;;3.30;0.80;;;;;;;;;;5059138;28;20551;-64
2022/09/06 06:11:03;;;;;;;0.90;0.90;;;;;;;;;;5057547;28;20207;-63
2022/09/06 06:13:33;;;;;;;0.90;0.90;;;;;;;;;;5057753;28;20290;-65
2022/09/06 06:16:00;;;;;;;0.77;0.77;;;;;;;;;;5059065;28;20215;-64
2022/09/06 06:18:29;;;;;;;1.00;1.00;;;;;;;;;;5058013;28;20255;-64
2022/09/06 06:21:07;;;;;;;0.80;0.80;;;;;;;;;;5057344;28;20759;-64
2022/09/06 06:23:34;;;;;;;0.90;0.90;;;;;;;;;;5057179;28;20329;-66
2022/09/06 06:26:01;;;;;;;0.90;0.90;;;;;;;;;;5057824;28;20211;-64
2022/09/06 06:28:28;;;;;;;1.02;0.75;;;;;;;;;;5064561;28;20592;-64
2022/09/06 06:30:55;;;;;;;1.00;1.00;;;;;;;;;;5068605;28;20217;-64
2022/09/06 06:33:22;;;;;;;0.85;0.85;;;;;;;;;;5068515;28;20219;-68
2022/09/06 06:35:58;;;;;;;0.77;0.77;;;;;;;;;;5050744;28;20223;-64
2022/09/06 06:38:25;;;;;;;0.80;0.80;;;;;;;;;;5057420;28;20664;-64
2022/09/06 06:40:52;;;;;;;0.77;0.77;;;;;;;;;;5056117;28;20219;-64
2022/09/06 06:43:19;;;;;;;1.60;0.90;;;;;;;;;;5047722;28;20203;-64
2022/09/06 06:45:49;;;;;;;0.75;0.75;;;;;;;;;;5048233;28;20262;-63
2022/09/06 06:48:16;;;;;;;0.77;0.77;;;;;;;;;;5048058;28;20318;-64
2022/09/06 06:50:43;;;;;;;0.52;0.52;;;;;;;;;;5046933;28;20208;-61
2022/09/06 06:53:12;;;;;;;0.73;0.73;;;;;;;;;;5047955;28;20282;-68
2022/09/06 06:55:39;;;;;;;0.77;0.77;;;;;;;;;;5060072;28;20633;-66
2022/09/06 06:58:06;;;;;;;0.68;0.68;;;;;;;;;;5057579;28;20207;-66
2022/09/06 07:00:33;;;;;;;1.05;0.85;;;;;;;;;;5048358;28;20219;-67
2022/09/06 07:03:00;;;;;;;0.70;0.70;;;;;;;;;;5063062;28;20215;-67
2022/09/06 07:05:27;;;;;;;0.90;0.90;;;;;;;;;;5067940;28;20206;-67
2022/09/06 07:07:54;;;;;;;0.80;0.80;;;;;;;;;;5053998;28;20211;-65
2022/09/06 07:10:23;;;;;;;0.60;0.60;;;;;;;;;;5047977;28;20211;-66
2022/09/06 07:12:51;;;;;;;0.75;0.75;;;;;;;;;;5057880;28;20212;-65
2022/09/06 07:15:18;;;;;;;0.80;0.80;;;;;;;;;;5063045;28;20223;-65
2022/09/06 07:17:45;;;;;;;0.60;0.60;;;;;;;;;;5060746;28;20222;-65
2022/09/06 07:20:12;;;;;;;0.90;0.90;;;;;;;;;;5064806;28;20268;-65
2022/09/06 07:22:40;;;;;;;0.45;0.45;;;;;;;;;;5049201;28;20203;-65
2022/09/06 07:25:07;;;;;;;0.65;0.65;;;;;;;;;;5053324;28;20968;-65
2022/09/06 07:27:36;;;;;;;0.65;0.60;;;;;;;;;;5047678;28;20208;-65
2022/09/06 07:30:03;;;;;;;0.40;0.40;;;;;;;;;;5058468;28;20215;-65
2022/09/06 07:32:30;;;;;;;0.70;0.70;;;;;;;;;;5048467;28;20204;-65
2022/09/06 07:34:58;;;;;;;0.70;0.70;;;;;;;;;;5053000;28;20251;-65
2022/09/06 07:37:25;;;;;;;0.77;0.77;;;;;;;;;;5067622;28;20207;-65
2022/09/06 07:39:52;;;;;;;0.68;0.68;;;;;;;;;;5060482;28;20212;-65
2022/09/06 07:42:19;;;;;;;1.48;0.63;;;;;;;;;;5048461;28;20294;-65
2022/09/06 07:44:48;;;;;;;0.70;0.70;;;;;;;;;;5058964;28;20207;-65
2022/09/06 07:47:16;;;;;;;0.77;0.77;;;;;;;;;;5046822;28;20261;-65
2022/09/06 07:49:43;;;;;;;0.75;0.73;;;;;;;;;;5044853;28;20354;-65
2022/09/06 07:52:10;;;;;;;2.05;0.98;;;;;;;;;;5050023;28;20219;-64
2022/09/06 07:54:37;;;;;;;1.85;1.02;;;;;;;;;;5061028;28;20214;-64
2022/09/06 07:57:05;;;;;;;1.20;1.20;;;;;;;;;;5066877;28;20214;-65
2022/09/06 07:59:32;;;;;;;0.93;0.90;;;;;;;;;;5066284;28;20206;-64
2022/09/06 08:02:01;;;;;;;1.10;1.10;;;;;;;;;;5048723;28;20215;-64
2022/09/06 08:04:28;;;;;;;2.22;0.98;;;;;;;;;;5067795;28;20210;-65
2022/09/06 08:06:56;;;;;;;1.15;1.15;;;;;;;;;;5053810;28;20228;-65
2022/09/06 08:09:23;;;;;;;1.50;1.50;;;;;;;;;;5050312;28;20273;-64
2022/09/06 08:11:51;;;;;;;3.75;1.13;;;;;;;;;;5050126;28;20228;-65
2022/09/06 08:14:18;;;;;;;1.17;1.17;;;;;;;;;;5067470;28;20211;-65
2022/09/06 08:16:45;;;;;;;1.20;1.20;;;;;;;;;;5064542;28;20633;-65
2022/09/06 08:19:14;;;;;;;1.17;1.13;;;;;;;;;;5050746;28;20239;-65
2022/09/06 08:21:41;;;;;;;1.30;1.13;;;;;;;;;;5065056;28;20214;-64
2022/09/06 08:24:10;;;;;;;1.17;1.17;;;;;;;;;;5058551;28;20246;-64
2022/09/06 08:26:39;;;;;;;1.20;1.08;;;;;;;;;;5067343;28;20206;-65
2022/09/06 08:29:07;;;;;;;1.10;1.10;;;;;;;;;;5051983;28;20219;-65
2022/09/06 08:31:36;;;;;;;0.90;0.90;;;;;;;;;;5061804;28;20292;-65
2022/09/06 08:34:03;;;;;;;1.23;1.23;;;;;;;;;;5049371;28;20207;-64
2022/09/06 08:36:32;;;;;;;1.05;0.98;;;;;;;;;;5049602;28;20286;-64
2022/09/06 08:39:00;;;;;;;1.30;1.17;;;;;;;;;;5049794;28;20272;-64
2022/09/06 08:41:28;;;;;;;1.15;1.10;;;;;;;;;;5050199;28;20216;-65
2022/09/06 08:43:56;;;;;;;0.80;0.80;;;;;;;;;;5048149;28;20295;-65
2022/09/06 08:46:28;;;;;;;1.05;1.05;;;;;;;;;;5049185;28;20203;-65
2022/09/06 08:48:55;;;;;;;1.55;1.00;;;;;;;;;;5047761;28;20223;-64
2022/09/06 08:51:38;;;;;;;0.98;0.90;;;;;;;;;;5049555;28;20654;-65
2022/09/06 08:54:09;;;;;;;1.27;0.98;;;;;;;;;;5049292;28;20207;-66
2022/09/06 08:56:39;;;;;;;1.00;1.00;;;;;;;;;;5060243;28;20748;-66
2022/09/06 08:59:07;;;;;;;0.98;0.98;;;;;;;;;;5049478;28;20678;-66
2022/09/06 09:01:37;;;;;;;1.00;1.00;;;;;;;;;;5050561;28;20199;-66
2022/09/06 09:04:06;;;;;;;1.10;1.00;;;;;;;;;;5047398;28;20215;-65
2022/09/06 09:06:35;;;;;;;0.82;0.82;;;;;;;;;;5050111;28;20216;-66
2022/09/06 09:09:04;;;;;;;1.00;1.00;;;;;;;;;;5049117;28;20207;-66
2022/09/06 09:11:32;;;;;;;0.82;0.82;;;;;;;;;;5066369;28;20233;-65
2022/09/06 09:14:04;;;;;;;1.02;1.00;;;;;;;;;;5055813;28;20237;-69
2022/09/06 09:16:31;;;;;;;1.10;1.10;;;;;;;;;;5053999;28;20232;-67
2022/09/06 09:18:59;;;;;;;0.98;0.98;;;;;;;;;;5060038;28;20227;-69
2022/09/06 09:21:28;;;;;;;1.17;1.00;;;;;;;;;;5049432;28;20215;-66
2022/09/06 09:23:57;;;;;;;1.10;1.10;;;;;;;;;;5048934;28;20270;-65
2022/09/06 09:26:26;;;;;;;0.90;0.90;;;;;;;;;;5067148;28;20304;-67
2022/09/06 09:29:02;;;;;;;0.95;0.95;;;;;;;;;;5068381;28;20318;-67
2022/09/06 09:31:34;;;;;;;1.10;1.10;;;;;;;;;;5056952;28;20210;-66
2022/09/06 09:34:03;;;;;;;1.17;1.17;;;;;;;;;;5048924;28;20283;-67
2022/09/06 09:36:31;;;;;;;1.10;0.95;;;;;;;;;;5048383;28;20716;-66
2022/09/06 09:38:59;;;;;;;1.27;1.17;;;;;;;;;;5049287;28;20256;-66
2022/09/06 09:41:28;;;;;;;0.80;0.80;;;;;;;;;;5051242;28;20788;-67
2022/09/06 09:43:57;;;;;;;1.00;1.00;;;;;;;;;;5048633;28;20295;-66
2022/09/06 09:46:32;;;;;;;0.90;0.90;;;;;;;;;;5048715;28;20640;-67
2022/09/06 09:49:01;;;;;;;2.13;1.27;;;;;;;;;;5066843;28;20198;-66
2022/09/06 09:51:28;;;;;;;1.20;1.10;;;;;;;;;;5068269;28;20858;-67
2022/09/06 09:53:56;;;;;;;1.10;1.10;;;;;;;;;;5068549;28;20218;-67
2022/09/06 09:56:29;;;;;;;1.42;1.33;;;;;;;;;;5068249;28;20242;-67
2022/09/06 09:58:57;;;;;;;1.00;1.00;;;;;;;;;;5068213;28;20215;-67
2022/09/06 10:01:26;;;;;;;1.80;1.35;;;;;;;;;;5068411;28;20301;-67
2022/09/06 10:04:00;;;;;;;1.10;1.10;;;;;;;;;;5065425;28;20276;-69
2022/09/06 10:06:27;;;;;;;1.25;1.23;;;;;;;;;;5050720;28;20729;-66
2022/09/06 10:08:54;;;;;;;1.10;1.00;;;;;;;;;;5057878;28;20628;-66
2022/09/06 10:11:36;;;;;;;1.30;1.30;;;;;;;;;;5058613;28;20203;-66
2022/09/06 10:14:12;;;;;;;1.38;1.30;;;;;;;;;;5048249;28;20207;-65
2022/09/06 10:16:43;;;;;;;1.05;1.05;;;;;;;;;;5053181;28;20239;-65
2022/09/06 10:19:21;;;;;;;1.40;1.40;;;;;;;;;;5047859;28;20262;-65
2022/09/06 10:21:49;;;;;;;1.48;1.48;;;;;;;;;;5047784;28;20208;-64
2022/09/06 10:24:21;;;;;;;1.20;1.20;;;;;;;;;;5054080;28;20609;-65
2022/09/06 10:26:51;;;;;;;0.98;0.98;;;;;;;;;;5059655;28;20199;-64
2022/09/06 10:29:26;;;;;;;1.13;1.02;;;;;;;;;;5058254;28;20203;-64
2022/09/06 10:32:04;;;;;;;0.88;0.88;;;;;;;;;;5067131;28;20206;-64
2022/09/06 10:34:49;;;;;;;1.20;1.20;;;;;;;;;;5066847;28;20203;-65
2022/09/06 10:37:25;;;;;;;1.10;1.10;;;;;;;;;;5062831;28;20284;-65
2022/09/06 10:39:56;;;;;;;1.50;1.40;;;;;;;;;;5050887;28;20210;-65
2022/09/06 10:42:27;;;;;;;1.02;1.02;;;;;;;;;;5047920;28;20211;-64
2022/09/06 10:45:03;;;;;;;0.90;0.90;;;;;;;;;;5048666;28;20628;-66
2022/09/06 10:47:34;;;;;;;1.10;1.10;;;;;;;;;;5066029;28;20276;-66
2022/09/06 10:50:03;;;;;;;1.25;1.25;;;;;;;;;;5056081;28;20253;-64
2022/09/06 10:52:34;;;;;;;1.10;1.10;;;;;;;;;;5053962;28;20195;-64
2022/09/06 10:55:03;;;;;;;1.27;1.20;;;;;;;;;;5055318;28;20212;-65
2022/09/06 10:57:34;;;;;;;1.40;1.30;;;;;;;;;;5047461;28;20278;-65
2022/09/06 11:00:05;;;;;;;1.17;1.17;;;;;;;;;;5064642;28;20226;-65
2022/09/06 11:02:36;;;;;;;1.10;1.10;;;;;;;;;;5067438;28;20555;-65
2022/09/06 11:05:05;;;;;;;1.10;1.10;;;;;;;;;;5067700;28;20559;-65
2022/09/06 11:07:34;;;;;;;1.77;1.20;;;;;;;;;;5067170;28;20695;-65
2022/09/06 11:10:03;;;;;;;1.42;1.40;;;;;;;;;;5050108;28;20208;-65
2022/09/06 11:12:33;;;;;;;1.10;1.10;;;;;;;;;;5047302;28;20211;-66
2022/09/06 11:15:03;;;;;;;1.10;1.10;;;;;;;;;;5063857;28;20261;-66
2022/09/06 11:17:32;;;;;;;1.27;1.10;;;;;;;;;;5066324;28;20265;-66
2022/09/06 11:20:04;;;;;;;1.10;1.10;;;;;;;;;;5067301;28;20215;-66
2022/09/06 11:22:44;;;;;;;1.65;1.55;;;;;;;;;;5061528;28;20264;-67
2022/09/06 11:25:29;;;;;;;1.55;1.42;;;;;;;;;;5056902;28;20238;-73
2022/09/06 11:27:57;;;;;;;1.23;1.23;;;;;;;;;;5047304;28;20254;-72
2022/09/06 11:30:26;;;;;;;1.67;1.23;;;;;;;;;;5047219;28;20524;-73
2022/09/06 11:33:05;;;;;;;2.58;1.20;;;;;;;;;;5047476;28;20575;-71
2022/09/06 11:35:33;;;;;;;1.33;1.33;;;;;;;;;;5047067;28;20568;-73
2022/09/06 11:38:02;;;;;;;1.40;1.40;;;;;;;;;;5051611;28;20238;-72
2022/09/06 11:40:30;;;;;;;1.10;1.10;;;;;;;;;;5061974;28;20238;-74
2022/09/06 11:43:11;;;;;;;1.30;1.30;;;;;;;;;;5071419;28;20238;-73
2022/09/06 11:45:44;;;;;;;1.38;1.38;;;;;;;;;;5055181;28;20239;-69
2022/09/06 11:48:33;;;;;;;1.17;1.17;;;;;;;;;;5055522;28;20253;-68
2022/09/06 11:51:06;;;;;;;1.20;1.20;;;;;;;;;;5057871;28;20310;-70
2022/09/06 11:53:34;;;;;;;1.60;1.60;;;;;;;;;;5070422;28;20928;-68
2022/09/06 11:56:12;;;;;;;1.02;1.02;;;;;;;;;;5055861;28;20257;-68
2022/09/06 11:58:46;;;;;;;2.05;1.48;;;;;;;;;;5059631;28;20222;-68
2022/09/06 12:01:32;;;;;;;2.35;1.27;;;;;;;;;;5057274;28;20211;-68
2022/09/06 12:04:06;;;;;;;1.27;1.27;;;;;;;;;;5064380;28;20207;-69
2022/09/06 12:06:34;;;;;;;1.30;1.30;;;;;;;;;;5062920;28;20738;-72
2022/09/06 12:09:01;;;;;;;3.05;1.30;;;;;;;;;;5058821;28;20654;-71
2022/09/06 12:11:33;;;;;;;1.23;1.23;;;;;;;;;;5068366;28;20605;-72
2022/09/06 12:14:03;;;;;;;1.80;1.33;;;;;;;;;;5070053;28;20207;-73
2022/09/06 12:16:48;;;;;;;1.40;1.40;;;;;;;;;;5058959;28;20222;-65
2022/09/06 12:19:30;;;;;;;1.65;1.27;;;;;;;;;;5056078;28;20607;-70
2022/09/06 12:21:58;;;;;;;1.75;1.65;;;;;;;;;;5049746;28;20196;-68
2022/09/06 12:24:47;;;;;;;2.05;1.40;;;;;;;;;;5051442;28;20639;-72
2022/09/06 12:27:15;;;;;;;1.20;1.10;;;;;;;;;;5048485;28;20210;-72
2022/09/06 12:29:49;;;;;;;1.33;1.33;;;;;;;;;;5059277;28;20875;-72
2022/09/06 12:32:19;;;;;;;1.38;1.38;;;;;;;;;;5052719;28;20527;-71
2022/09/06 12:34:46;;;;;;;1.75;1.27;;;;;;;;;;5069278;28;20215;-72
2022/09/06 12:37:15;;;;;;;1.20;1.20;;;;;;;;;;5048737;28;20227;-73
2022/09/06 12:39:56;;;;;;;1.85;1.30;;;;;;;;;;5048877;28;20215;-72
2022/09/06 12:42:23;;;;;;;1.23;1.23;;;;;;;;;;5059287;28;20294;-71
2022/09/06 12:44:52;;;;;;;1.27;1.20;;;;;;;;;;5061047;28;20199;-71
2022/09/06 12:47:22;;;;;;;1.17;1.17;;;;;;;;;;5047228;28;20204;-72
2022/09/06 12:50:05;;;;;;;2.20;1.45;;;;;;;;;;5048226;28;20678;-72
2022/09/06 12:52:33;;;;;;;1.15;1.15;;;;;;;;;;5054131;28;20310;-73
2022/09/06 12:55:00;;;;;;;1.45;1.17;;;;;;;;;;5068301;28;20222;-73
2022/09/06 12:57:28;;;;;;;0.95;0.95;;;;;;;;;;5055702;28;20223;-72
2022/09/06 12:59:56;;;;;;;1.55;1.45;;;;;;;;;;5049024;28;20220;-68
2022/09/06 13:02:30;;;;;;;1.17;1.15;;;;;;;;;;5052738;28;20762;-65
2022/09/06 13:05:01;;;;;;;1.00;1.00;;;;;;;;;;5067816;28;20428;-73
2022/09/06 13:07:30;;;;;;;1.45;1.45;;;;;;;;;;5048704;28;20207;-68
2022/09/06 13:09:59;;;;;;;1.40;1.40;;;;;;;;;;5048674;28;20221;-63
2022/09/06 13:12:28;;;;;;;1.10;1.10;;;;;;;;;;5048653;28;20208;-70
2022/09/06 13:14:55;;;;;;;1.20;1.20;;;;;;;;;;5049090;28;20923;-61
2022/09/06 13:17:24;;;;;;;1.52;1.40;;;;;;;;;;5048845;28;20308;-71
2022/09/06 13:19:51;;;;;;;2.30;1.20;;;;;;;;;;5048704;28;20211;-68
2022/09/06 13:22:33;;;;;;;1.33;1.27;;;;;;;;;;5047335;28;20211;-72
2022/09/06 13:25:01;;;;;;;1.13;1.13;;;;;;;;;;5055001;28;20250;-69
2022/09/06 13:27:34;;;;;;;1.27;1.27;;;;;;;;;;5056159;28;20212;-69
2022/09/06 13:30:02;;;;;;;1.13;1.13;;;;;;;;;;5053795;28;20294;-71
2022/09/06 13:32:29;;;;;;;1.58;1.15;;;;;;;;;;5068334;28;20229;-69
2022/09/06 13:34:58;;;;;;;1.20;1.20;;;;;;;;;;5068797;28;20268;-69
2022/09/06 13:37:25;;;;;;;3.00;1.35;;;;;;;;;;5059370;28;20296;-72
2022/09/06 13:39:53;;;;;;;1.30;1.30;;;;;;;;;;5048807;28;20203;-73
2022/09/06 13:42:29;;;;;;;1.33;1.33;;;;;;;;;;5048308;28;20227;-70
2022/09/06 13:44:56;;;;;;;1.67;1.58;;;;;;;;;;5048207;28;20199;-69
2022/09/06 13:47:23;;;;;;;1.35;1.25;;;;;;;;;;5048387;28;20204;-70
2022/09/06 13:49:53;;;;;;;1.20;1.00;;;;;;;;;;5048658;28;20216;-69
2022/09/06 13:52:21;;;;;;;1.38;1.38;;;;;;;;;;5048572;28;20218;-70
2022/09/06 13:54:48;;;;;;;1.67;1.48;;;;;;;;;;5053351;28;20250;-69
2022/09/06 13:57:15;;;;;;;1.45;1.45;;;;;;;;;;5050163;28;20219;-68
2022/09/06 13:59:44;;;;;;;1.27;1.23;;;;;;;;;;5067780;28;20622;-71
2022/09/06 14:02:14;;;;;;;1.20;1.20;;;;;;;;;;5062597;28;20204;-73
2022/09/06 14:04:41;;;;;;;1.15;1.15;;;;;;;;;;5048279;28;20210;-68
2022/09/06 14:07:09;;;;;;;1.15;1.05;;;;;;;;;;5047845;28;20220;-70
2022/09/06 14:09:36;;;;;;;1.30;1.20;;;;;;;;;;5047663;28;20239;-70
2022/09/06 14:12:05;;;;;;;0.90;0.90;;;;;;;;;;5056924;28;20910;-68
2022/09/06 14:14:32;;;;;;;0.90;0.90;;;;;;;;;;5052121;28;20215;-71
2022/09/06 14:17:00;;;;;;;1.15;1.05;;;;;;;;;;5064772;28;20214;-71
2022/09/06 14:19:28;;;;;;;1.10;1.10;;;;;;;;;;5047381;28;20722;-70
2022/09/06 14:21:55;;;;;;;1.20;1.20;;;;;;;;;;5047519;28;20645;-70
2022/09/06 14:24:22;;;;;;;1.70;1.25;;;;;;;;;;5048666;28;20278;-70
2022/09/06 14:26:49;;;;;;;1.38;0.98;;;;;;;;;;5055757;28;20298;-70
2022/09/06 14:29:16;;;;;;;4.13;1.13;;;;;;;;;;5054007;28;20214;-70
2022/09/06 14:31:43;;;;;;;4.45;1.52;;;;;;;;;;5066107;28;20678;-69
2022/09/06 14:34:11;;;;;;;1.10;1.10;;;;;;;;;;5063669;28;20669;-70
2022/09/06 14:36:39;;;;;;;1.35;1.25;;;;;;;;;;5059767;28;20208;-73
2022/09/06 14:39:06;;;;;;;1.75;1.10;;;;;;;;;;5050928;28;20226;-71
2022/09/06 14:41:33;;;;;;;1.65;1.23;;;;;;;;;;5056492;28;20248;-71
2022/09/06 14:44:01;;;;;;;2.05;1.17;;;;;;;;;;5067665;28;20211;-70
2022/09/06 14:46:29;;;;;;;1.92;1.08;;;;;;;;;;5066901;28;20329;-70
2022/09/06 14:48:57;;;;;;;1.02;1.02;;;;;;;;;;5066947;28;20199;-70
2022/09/06 14:51:25;;;;;;;0.90;0.90;;;;;;;;;;5067594;28;20309;-70
2022/09/06 14:53:53;;;;;;;1.55;1.10;;;;;;;;;;5048657;28;20241;-70
2022/09/06 14:56:20;;;;;;;0.85;0.85;;;;;;;;;;5053914;28;20299;-71